createdAt,value
2018-07-17T00:04:07.191Z,84.40
2018-07-17T00:06:35.788Z,85.40
2018-07-17T00:09:04.814Z,84.70
2018-07-17T00:11:33.344Z,85.20
2018-07-17T00:14:01.890Z,86.00
2018-07-17T00:18:58.582Z,88.60
2018-07-17T00:21:27.146Z,87.10
2018-07-17T00:26:23.807Z,85.20
2018-07-17T00:28:52.377Z,84.80
2018-07-17T00:31:20.888Z,87.20
2018-07-17T00:36:17.602Z,88.90
2018-07-17T00:38:46.118Z,89.20
2018-07-17T00:41:14.686Z,89.50
2018-07-17T00:43:43.237Z,90.00
2018-07-17T00:46:11.751Z,89.50
2018-07-17T00:48:40.290Z,89.60
2018-07-17T00:53:37.017Z,86.40
2018-07-17T00:56:05.557Z,86.30
2018-07-17T00:58:34.065Z,85.70
2018-07-17T01:01:01.767Z,87.20
2018-07-17T01:03:35.633Z,86.50
2018-07-17T01:06:09.597Z,83.40
2018-07-17T01:08:43.455Z,84.40
2018-07-17T01:11:17.411Z,83.50
2018-07-17T01:13:50.672Z,83.60
2018-07-17T01:16:19.248Z,82.70
2018-07-17T01:18:47.742Z,82.10
2018-07-17T01:21:16.275Z,82.80
2018-07-17T01:23:44.816Z,85.00
2018-07-17T01:26:13.315Z,85.60
2018-07-17T01:28:41.809Z,84.00
2018-07-17T01:31:10.328Z,83.70
2018-07-17T01:33:38.838Z,84.70
2018-07-17T01:36:07.345Z,85.30
2018-07-17T01:38:35.923Z,84.80
2018-07-17T01:41:04.424Z,86.70
2018-07-17T01:43:32.981Z,87.20
2018-07-17T01:46:01.509Z,86.50
2018-07-17T01:48:30.051Z,86.00
2018-07-17T01:50:58.588Z,86.60
2018-07-17T01:53:27.149Z,87.40
2018-07-17T01:55:55.668Z,87.50
2018-07-17T01:58:24.170Z,87.10
2018-07-17T02:03:20.974Z,86.50
2018-07-17T02:05:49.520Z,85.70
2018-07-17T02:08:18.048Z,85.10
2018-07-17T02:10:46.562Z,85.80
2018-07-17T02:13:15.104Z,85.90
2018-07-17T02:15:43.624Z,86.80
2018-07-17T02:18:12.160Z,86.70
2018-07-17T02:20:40.656Z,86.90
2018-07-17T02:23:09.152Z,88.90
2018-07-17T02:25:37.686Z,87.40
2018-07-17T02:28:06.201Z,87.00
2018-07-17T02:30:34.716Z,89.00
2018-07-17T02:33:03.250Z,89.60
2018-07-17T02:35:31.835Z,89.50
2018-07-17T02:38:00.372Z,88.80
2018-07-17T02:40:28.893Z,89.60
2018-07-17T02:42:57.398Z,90.20
2018-07-17T02:45:25.968Z,90.10
2018-07-17T02:47:54.513Z,89.60
2018-07-17T02:50:23.050Z,89.50
2018-07-17T02:52:51.601Z,90.10
2018-07-17T02:55:20.113Z,90.20
2018-07-17T02:57:48.659Z,89.50
2018-07-17T03:00:17.204Z,89.70
2018-07-17T03:02:45.734Z,89.30
2018-07-17T03:05:14.266Z,90.00
2018-07-17T03:07:42.791Z,90.30
2018-07-17T03:10:11.351Z,90.40
2018-07-17T03:12:39.963Z,90.50
2018-07-17T03:17:36.698Z,89.70
2018-07-17T03:20:05.373Z,90.50
2018-07-17T03:22:33.901Z,90.90
2018-07-17T03:25:02.430Z,91.20
2018-07-17T03:27:30.982Z,91.00
2018-07-17T03:29:59.519Z,90.60
2018-07-17T03:32:28.066Z,90.60
2018-07-17T03:37:24.774Z,90.10
2018-07-17T03:39:53.286Z,91.20
2018-07-17T03:42:21.858Z,91.10
2018-07-17T03:44:50.384Z,91.00
2018-07-17T03:47:18.900Z,91.10
2018-07-17T03:49:47.431Z,91.70
2018-07-17T03:52:16.068Z,91.90
2018-07-17T03:54:44.578Z,91.50
2018-07-17T03:57:13.988Z,91.40
2018-07-17T03:59:42.545Z,90.90
2018-07-17T04:02:11.072Z,91.00
2018-07-17T04:04:39.587Z,91.30
2018-07-17T04:07:08.157Z,91.40
2018-07-17T04:09:36.700Z,92.10
2018-07-17T04:12:05.231Z,92.00
2018-07-17T04:14:33.777Z,91.70
2018-07-17T04:17:02.365Z,91.40
2018-07-17T04:19:30.862Z,91.20
2018-07-17T04:21:59.391Z,90.80
2018-07-17T04:24:27.925Z,91.70
2018-07-17T04:26:56.476Z,91.80
2018-07-17T04:29:25.020Z,92.10
2018-07-17T04:31:53.708Z,92.50
2018-07-17T04:34:22.161Z,92.30
2018-07-17T04:36:50.661Z,91.90
2018-07-17T04:39:19.210Z,90.80
2018-07-17T04:41:47.717Z,91.20
2018-07-17T04:44:16.359Z,91.30
2018-07-17T04:46:44.781Z,91.40
2018-07-17T04:51:41.544Z,93.10
2018-07-17T04:54:10.164Z,92.80
2018-07-17T04:56:38.712Z,92.80
2018-07-17T04:59:07.238Z,92.50
2018-07-17T05:01:35.793Z,92.60
2018-07-17T05:04:04.325Z,92.40
2018-07-17T05:06:32.862Z,91.50
2018-07-17T05:09:01.409Z,91.30
2018-07-17T05:11:29.916Z,91.20
2018-07-17T05:13:58.425Z,90.90
2018-07-17T05:16:26.947Z,90.40
2018-07-17T05:18:55.499Z,91.60
2018-07-17T05:21:24.027Z,91.20
2018-07-17T05:23:52.583Z,91.50
2018-07-17T05:26:21.120Z,90.90
2018-07-17T05:28:49.722Z,91.50
2018-07-17T05:31:18.225Z,90.50
2018-07-17T05:33:46.770Z,90.90
2018-07-17T05:36:15.335Z,91.80
2018-07-17T05:38:43.827Z,91.70
2018-07-17T05:41:12.420Z,91.30
2018-07-17T05:43:40.973Z,91.30
2018-07-17T05:48:37.687Z,91.40
2018-07-17T05:51:06.241Z,92.80
2018-07-17T05:53:34.757Z,90.30
2018-07-17T05:56:03.277Z,90.70
2018-07-17T05:58:31.811Z,89.90
2018-07-17T06:01:00.383Z,90.70
2018-07-17T06:03:28.973Z,91.30
2018-07-17T06:05:57.525Z,91.40
2018-07-17T06:08:26.063Z,90.30
2018-07-17T06:10:54.620Z,90.30
2018-07-17T06:15:51.419Z,90.00
2018-07-17T06:18:19.894Z,89.60
2018-07-17T06:20:48.456Z,88.50
2018-07-17T06:25:45.191Z,83.60
2018-07-17T06:28:13.723Z,81.90
2018-07-17T06:30:42.323Z,82.10
2018-07-17T06:33:10.881Z,81.90
2018-07-17T06:35:39.408Z,81.60
2018-07-17T06:38:07.993Z,80.90
2018-07-17T06:40:36.522Z,80.80
2018-07-17T06:43:05.743Z,82.40
2018-07-17T06:48:02.487Z,83.50
2018-07-17T06:50:31.092Z,82.40
2018-07-17T06:52:59.580Z,82.90
2018-07-17T06:55:28.133Z,87.50
2018-07-17T06:57:56.655Z,83.90
2018-07-17T07:00:25.210Z,83.40
2018-07-17T07:02:53.731Z,86.30
2018-07-17T07:05:22.230Z,82.90
2018-07-17T07:07:50.734Z,82.20
2018-07-17T07:10:19.340Z,85.70
2018-07-17T07:12:47.897Z,84.50
2018-07-17T07:15:16.410Z,84.00
2018-07-17T07:17:44.953Z,81.50
2018-07-17T07:20:13.506Z,81.50
2018-07-17T07:22:42.186Z,82.40
2018-07-17T07:25:10.730Z,83.80
2018-07-17T07:30:07.476Z,84.70
2018-07-17T07:32:36.022Z,80.40
2018-07-17T07:35:04.786Z,81.10
2018-07-17T07:37:33.338Z,82.70
2018-07-17T07:40:01.853Z,78.70
2018-07-17T07:44:58.583Z,76.40
2018-07-17T07:47:27.154Z,77.80
2018-07-17T07:49:55.688Z,76.50
2018-07-17T07:52:24.218Z,79.70
2018-07-17T07:54:52.758Z,80.00
2018-07-17T07:59:49.460Z,80.80
2018-07-17T08:02:18.016Z,76.70
2018-07-17T08:04:46.501Z,78.00
2018-07-17T08:07:15.041Z,76.30
2018-07-17T08:09:43.551Z,76.30
2018-07-17T08:12:12.100Z,77.60
2018-07-17T08:14:40.627Z,74.00
2018-07-17T08:17:09.200Z,74.10
2018-07-17T08:19:37.774Z,74.00
2018-07-17T08:22:06.368Z,73.80
2018-07-17T08:24:34.920Z,75.50
2018-07-17T08:27:03.474Z,75.60
2018-07-17T08:29:32.000Z,73.50
2018-07-17T08:32:00.622Z,73.80
2018-07-17T08:34:29.148Z,74.70
2018-07-17T08:41:54.048Z,75.70
2018-07-17T08:44:22.638Z,77.00
2018-07-17T08:46:51.188Z,78.10
2018-07-17T08:49:19.733Z,77.80
2018-07-17T08:51:48.268Z,77.90
2018-07-17T08:54:16.784Z,78.60
2018-07-17T08:56:45.380Z,80.00
2018-07-17T08:59:14.120Z,79.50
2018-07-17T09:01:42.682Z,78.30
2018-07-17T09:04:11.262Z,80.40
2018-07-17T09:06:39.796Z,76.80
2018-07-17T09:09:08.308Z,75.20
2018-07-17T09:11:36.959Z,75.90
2018-07-17T09:14:05.527Z,72.50
2018-07-17T09:16:34.088Z,71.40
2018-07-17T09:19:02.639Z,73.90
2018-07-17T09:21:31.203Z,68.60
2018-07-17T09:23:59.756Z,67.00
2018-07-17T09:26:28.323Z,68.00
2018-07-17T09:28:56.858Z,65.80
2018-07-17T09:33:53.597Z,68.10
2018-07-17T09:36:22.125Z,67.10
2018-07-17T09:38:50.643Z,69.40
2018-07-17T09:41:19.205Z,64.80
2018-07-17T09:43:47.769Z,63.80
2018-07-17T09:48:44.523Z,59.30
2018-07-17T09:53:41.271Z,59.00
2018-07-17T09:56:09.831Z,59.90
2018-07-17T09:58:38.402Z,59.30
2018-07-17T10:01:12.164Z,59.40
2018-07-17T10:03:40.725Z,58.30
2018-07-17T10:06:09.331Z,56.90
2018-07-17T10:08:37.872Z,58.50
2018-07-17T10:11:06.445Z,59.10
2018-07-17T10:13:35.006Z,57.10
2018-07-17T10:16:03.563Z,58.50
2018-07-17T10:18:32.138Z,56.00
2018-07-17T10:21:00.729Z,54.40
2018-07-17T10:23:29.274Z,55.10
2018-07-17T10:25:57.833Z,55.20
2018-07-17T10:28:26.409Z,55.40
2018-07-17T10:30:54.981Z,55.80
2018-07-17T10:33:23.507Z,56.80
2018-07-17T10:38:20.261Z,53.60
2018-07-17T10:40:48.816Z,53.60
2018-07-17T10:43:17.374Z,53.70
2018-07-17T10:45:45.909Z,54.30
2018-07-17T10:48:14.457Z,54.30
2018-07-17T10:50:43.020Z,55.40
2018-07-17T10:55:39.743Z,55.80
2018-07-17T10:58:08.323Z,52.80
2018-07-17T11:00:36.850Z,49.80
2018-07-17T11:05:33.606Z,48.80
2018-07-17T11:08:02.190Z,47.90
2018-07-17T11:10:30.792Z,48.00
2018-07-17T11:15:27.541Z,46.60
2018-07-17T11:17:56.071Z,48.90
2018-07-17T11:20:24.600Z,45.60
2018-07-17T11:22:53.172Z,41.20
2018-07-17T11:25:21.761Z,39.30
2018-07-17T11:27:50.317Z,39.50
2018-07-17T11:30:18.951Z,39.50
2018-07-17T11:32:47.510Z,41.30
2018-07-17T11:35:16.018Z,39.00
2018-07-17T11:37:44.580Z,35.70
2018-07-17T11:40:13.121Z,41.70
2018-07-17T11:42:41.681Z,34.90
2018-07-17T11:45:10.214Z,37.10
2018-07-17T11:47:38.751Z,35.10
2018-07-17T11:50:07.832Z,37.50
2018-07-17T11:52:36.365Z,39.10
2018-07-17T11:55:05.053Z,32.60
2018-07-17T11:57:33.767Z,33.80
2018-07-17T12:02:30.518Z,36.30
2018-07-17T12:04:59.096Z,33.90
2018-07-17T12:07:27.616Z,32.00
2018-07-17T12:09:56.143Z,33.30
2018-07-17T12:12:24.735Z,38.70
2018-07-17T12:14:53.297Z,33.60
2018-07-17T12:17:21.887Z,34.30
2018-07-17T12:19:50.481Z,31.70
2018-07-17T12:22:19.040Z,36.60
2018-07-17T12:24:47.581Z,32.10
2018-07-17T12:27:16.181Z,32.20
2018-07-17T12:29:44.730Z,34.80
2018-07-17T12:32:13.262Z,34.00
2018-07-17T12:34:41.834Z,34.50
2018-07-17T12:37:10.422Z,32.90
2018-07-17T12:39:38.984Z,31.10
2018-07-17T12:42:07.674Z,32.60
2018-07-17T12:44:36.247Z,32.80
2018-07-17T12:47:04.806Z,33.90
2018-07-17T12:49:33.356Z,30.00
2018-07-17T12:52:01.910Z,33.40
2018-07-17T12:54:30.536Z,32.10
2018-07-17T12:56:59.126Z,30.70
2018-07-17T12:59:27.711Z,30.50
2018-07-17T13:01:56.303Z,30.10
2018-07-17T13:04:24.880Z,29.50
2018-07-17T13:06:53.433Z,28.60
2018-07-17T13:09:22.042Z,29.00
2018-07-17T13:14:18.767Z,28.40
2018-07-17T13:16:47.290Z,29.10
2018-07-17T13:19:15.867Z,30.00
2018-07-17T13:21:44.479Z,29.30
2018-07-17T13:24:13.013Z,31.90
2018-07-17T13:31:37.970Z,30.70
2018-07-17T13:34:06.536Z,33.00
2018-07-17T13:39:03.692Z,32.70
2018-07-17T13:41:32.247Z,30.30
2018-07-17T13:44:00.818Z,32.20
2018-07-17T13:46:29.362Z,32.90
2018-07-17T13:48:57.925Z,31.50
2018-07-17T13:51:26.433Z,33.40
2018-07-17T13:53:55.005Z,32.90
2018-07-17T13:56:23.650Z,35.40
2018-07-17T13:58:52.380Z,32.20
2018-07-17T14:01:20.943Z,31.00
2018-07-17T14:03:49.514Z,31.80
2018-07-17T14:06:18.064Z,33.00
2018-07-17T14:08:46.633Z,32.00
2018-07-17T14:11:15.171Z,31.20
2018-07-17T14:13:43.707Z,34.20
2018-07-17T14:16:12.325Z,35.30
2018-07-17T14:18:40.891Z,36.70
2018-07-17T14:21:09.416Z,38.30
2018-07-17T14:23:38.018Z,38.20
2018-07-17T14:28:34.786Z,37.20
2018-07-17T14:31:04.233Z,35.70
2018-07-17T14:33:32.806Z,36.50
2018-07-17T14:36:01.349Z,37.60
2018-07-17T14:38:29.926Z,39.00
2018-07-17T14:43:26.698Z,40.70
2018-07-17T14:48:23.454Z,43.20
2018-07-17T14:50:51.968Z,42.40
2018-07-17T14:53:20.510Z,43.70
2018-07-17T14:55:49.083Z,43.20
2018-07-17T14:58:17.683Z,43.80
2018-07-17T15:00:46.210Z,45.40
2018-07-17T15:03:14.791Z,42.90
2018-07-17T15:10:39.672Z,45.40
2018-07-17T15:13:08.233Z,46.40
2018-07-17T15:15:36.860Z,47.80
2018-07-17T15:18:05.462Z,51.60
2018-07-17T15:20:33.989Z,55.50
2018-07-17T15:25:30.754Z,61.10
2018-07-17T15:30:28.468Z,63.40
2018-07-17T15:32:56.989Z,65.30
2018-07-17T15:35:25.565Z,66.10
2018-07-17T15:37:54.157Z,68.40
2018-07-17T15:40:22.831Z,68.10
2018-07-17T15:42:51.455Z,67.50
2018-07-17T15:45:20.109Z,68.80
2018-07-17T15:47:48.692Z,70.50
2018-07-17T15:50:17.276Z,71.10
2018-07-17T15:52:45.830Z,72.60
2018-07-17T15:57:43.483Z,70.30
2018-07-17T16:00:12.072Z,70.40
2018-07-17T16:02:40.740Z,70.30
2018-07-17T16:05:09.286Z,70.10
2018-07-17T16:10:06.073Z,69.10
2018-07-17T16:12:34.625Z,69.30
2018-07-17T16:15:03.174Z,68.80
2018-07-17T16:17:31.722Z,68.40
2018-07-17T16:20:00.270Z,68.90
2018-07-17T16:22:28.862Z,70.30
2018-07-17T16:24:57.400Z,67.30
2018-07-17T16:27:26.076Z,70.70
2018-07-17T16:29:54.626Z,72.60
2018-07-17T16:32:23.132Z,73.40
2018-07-17T16:34:51.696Z,74.00
2018-07-17T16:37:20.272Z,75.00
2018-07-17T16:39:48.813Z,75.60
2018-07-17T16:42:17.480Z,74.30
2018-07-17T16:44:46.101Z,75.70
2018-07-17T16:47:14.666Z,75.30
2018-07-17T16:52:11.489Z,74.40
2018-07-17T16:54:40.031Z,73.60
2018-07-17T16:57:08.581Z,74.00
2018-07-17T16:59:37.212Z,72.50
2018-07-17T17:02:06.080Z,73.40
2018-07-17T17:04:34.647Z,73.30
2018-07-17T17:07:03.232Z,73.30
2018-07-17T17:09:31.759Z,73.20
2018-07-17T17:12:00.299Z,73.50
2018-07-17T17:14:28.815Z,73.80
2018-07-17T17:19:25.564Z,74.00
2018-07-17T17:21:54.142Z,74.30
2018-07-17T17:24:23.045Z,74.60
2018-07-17T17:26:51.472Z,74.00
2018-07-17T17:29:20.067Z,74.50
2018-07-17T17:31:48.577Z,74.10
2018-07-17T17:34:17.161Z,74.40
2018-07-17T17:36:45.747Z,73.50
2018-07-17T17:39:14.253Z,72.40
2018-07-17T17:41:42.788Z,74.30
2018-07-17T17:44:11.397Z,75.60
2018-07-17T17:46:40.006Z,74.20
2018-07-17T17:49:08.549Z,74.30
2018-07-17T17:51:37.124Z,74.70
2018-07-17T17:54:05.755Z,75.30
2018-07-17T17:56:34.574Z,74.50
2018-07-17T17:59:03.254Z,73.70
2018-07-17T18:01:31.948Z,73.40
2018-07-17T18:04:00.537Z,74.70
2018-07-17T18:06:29.104Z,74.50
2018-07-17T18:08:57.674Z,75.90
2018-07-17T18:11:26.380Z,75.10
2018-07-17T18:13:54.958Z,74.40
2018-07-17T18:16:23.514Z,75.10
2018-07-17T18:18:52.627Z,75.50
2018-07-17T18:21:21.205Z,74.90
2018-07-17T18:23:49.868Z,75.40
2018-07-17T18:26:18.462Z,75.50
2018-07-17T18:28:47.059Z,74.80
2018-07-17T18:36:12.141Z,75.90
2018-07-17T18:38:40.680Z,75.50
2018-07-17T18:41:09.324Z,75.90
2018-07-17T18:43:37.849Z,76.40
2018-07-17T18:46:06.398Z,76.70
2018-07-17T18:48:35.122Z,76.50
2018-07-17T18:51:03.718Z,76.90
2018-07-17T18:53:32.995Z,77.20
2018-07-17T18:56:01.528Z,77.40
2018-07-17T18:58:30.079Z,77.00
2018-07-17T19:00:58.680Z,78.60
2018-07-17T19:03:27.203Z,77.70
2018-07-17T19:08:23.969Z,78.00
2018-07-17T19:13:35.037Z,78.50
2018-07-17T19:16:03.637Z,80.50
2018-07-17T19:18:32.254Z,79.40
2018-07-17T19:21:00.812Z,79.30
2018-07-17T19:23:29.348Z,78.60
2018-07-17T19:25:57.969Z,78.50
2018-07-17T19:28:26.536Z,79.10
2018-07-17T19:30:55.130Z,78.60
2018-07-17T19:33:23.706Z,79.40
2018-07-17T19:35:52.320Z,80.20
2018-07-17T19:38:20.904Z,79.60
2018-07-17T19:40:49.501Z,79.80
2018-07-17T19:43:17.999Z,80.30
2018-07-17T19:45:46.542Z,79.20
2018-07-17T19:48:15.074Z,80.70
2018-07-17T19:50:43.587Z,80.70
2018-07-17T19:53:12.110Z,81.10
2018-07-17T19:55:40.694Z,81.50
2018-07-17T19:58:09.460Z,82.60
2018-07-17T20:00:38.059Z,82.60
2018-07-17T20:03:06.670Z,83.30
2018-07-17T20:05:35.280Z,84.00
2018-07-17T20:08:03.841Z,83.90
2018-07-17T20:10:32.366Z,84.60
2018-07-17T20:13:00.851Z,82.70
2018-07-17T20:15:29.378Z,82.00
2018-07-17T20:17:57.928Z,81.50
2018-07-17T20:25:22.849Z,84.20
2018-07-17T20:27:51.415Z,82.10
2018-07-17T20:30:20.022Z,80.90
2018-07-17T20:32:48.689Z,81.30
2018-07-17T20:35:17.228Z,82.10
2018-07-17T20:42:42.184Z,84.80
2018-07-17T20:45:10.735Z,83.70
2018-07-17T20:47:39.383Z,81.90
2018-07-17T20:50:08.006Z,81.80
2018-07-17T20:52:36.635Z,83.00
2018-07-17T20:55:05.468Z,83.80
2018-07-17T20:57:34.090Z,82.90
2018-07-17T21:00:02.844Z,81.30
2018-07-17T21:02:31.373Z,81.20
2018-07-17T21:05:00.032Z,85.50
2018-07-17T21:07:28.509Z,87.20
2018-07-17T21:09:57.070Z,83.00
2018-07-17T21:12:25.605Z,82.90
2018-07-17T21:14:54.150Z,83.80
2018-07-17T21:17:22.700Z,83.30
2018-07-17T21:19:51.235Z,83.00
2018-07-17T21:22:19.765Z,82.80
2018-07-17T21:24:48.342Z,82.20
2018-07-17T21:27:16.850Z,82.80
2018-07-17T21:29:45.417Z,82.00
2018-07-17T21:32:13.950Z,81.60
2018-07-17T21:34:42.620Z,81.90
2018-07-17T21:37:11.203Z,82.00
2018-07-17T21:39:39.782Z,86.30
2018-07-17T21:42:08.398Z,83.20
2018-07-17T21:49:33.408Z,83.60
2018-07-17T21:52:02.146Z,84.00
2018-07-17T21:54:30.731Z,85.40
2018-07-17T21:56:59.233Z,84.90
2018-07-17T21:59:27.839Z,83.70
2018-07-17T22:01:56.419Z,82.80
2018-07-17T22:04:25.053Z,82.00
2018-07-17T22:06:53.598Z,82.10
2018-07-17T22:09:22.197Z,81.10
2018-07-17T22:11:50.746Z,81.50
2018-07-17T22:14:19.257Z,80.70
2018-07-17T22:16:47.917Z,79.70
2018-07-17T22:19:16.495Z,79.30
2018-07-17T22:29:09.608Z,79.10
2018-07-17T22:34:06.456Z,79.00
2018-07-17T22:36:35.028Z,77.90
2018-07-17T22:39:04.017Z,78.10
2018-07-17T22:41:32.514Z,77.20
2018-07-17T22:44:01.020Z,77.20
2018-07-17T22:46:29.595Z,77.00
2018-07-17T22:48:58.127Z,75.70
2018-07-17T22:51:26.653Z,76.90
2018-07-17T22:53:55.224Z,77.20
2018-07-17T22:56:23.744Z,77.60
2018-07-17T22:58:52.274Z,77.70
2018-07-17T23:01:20.805Z,80.00
2018-07-17T23:03:49.341Z,81.30
2018-07-17T23:08:46.959Z,81.80
2018-07-17T23:11:15.501Z,80.50
2018-07-17T23:13:44.078Z,81.00
2018-07-17T23:16:12.651Z,82.00
2018-07-17T23:18:41.281Z,83.20
2018-07-17T23:23:37.992Z,82.30
2018-07-17T23:26:06.572Z,82.10
2018-07-17T23:28:35.148Z,81.90
2018-07-17T23:31:03.808Z,81.40
2018-07-17T23:33:32.327Z,81.80
2018-07-17T23:36:00.855Z,81.00
2018-07-17T23:38:29.364Z,81.80
2018-07-17T23:43:26.075Z,82.20
2018-07-17T23:45:54.657Z,82.10
2018-07-17T23:48:23.190Z,82.70
2018-07-17T23:50:51.747Z,84.20
2018-07-17T23:53:20.262Z,84.40
2018-07-17T23:55:48.805Z,83.90
2018-07-17T23:58:17.374Z,84.00
